sensor_id;sensor_type;location;lat;lon;timestamp;P1;durP1;ratioP1;P2;durP2;ratioP2
28495;SDS011;15710;51.604;7.316;2022-07-12T00:00:03;4.60;;;2.05;;
28495;SDS011;15710;51.604;7.316;2022-07-12T00:02:31;5.68;;;2.42;;
28495;SDS011;15710;51.604;7.316;2022-07-12T00:04:57;2.28;;;1.95;;
28495;SDS011;15710;51.604;7.316;2022-07-12T00:07:23;3.50;;;2.03;;
28495;SDS011;15710;51.604;7.316;2022-07-12T00:09:50;1.90;;;1.70;;
28495;SDS011;15710;51.604;7.316;2022-07-12T00:12:16;2.28;;;2.08;;
28495;SDS011;15710;51.604;7.316;2022-07-12T00:14:42;1.65;;;1.55;;
28495;SDS011;15710;51.604;7.316;2022-07-12T00:17:08;4.93;;;2.38;;
28495;SDS011;15710;51.604;7.316;2022-07-12T00:19:34;2.40;;;2.20;;
28495;SDS011;15710;51.604;7.316;2022-07-12T00:22:00;3.20;;;2.05;;
28495;SDS011;15710;51.604;7.316;2022-07-12T00:24:26;2.95;;;2.03;;
28495;SDS011;15710;51.604;7.316;2022-07-12T00:26:52;2.78;;;2.05;;
28495;SDS011;15710;51.604;7.316;2022-07-12T00:29:18;3.22;;;1.90;;
28495;SDS011;15710;51.604;7.316;2022-07-12T00:31:44;2.22;;;1.88;;
28495;SDS011;15710;51.604;7.316;2022-07-12T00:34:10;1.73;;;1.63;;
28495;SDS011;15710;51.604;7.316;2022-07-12T00:36:37;4.28;;;2.25;;
28495;SDS011;15710;51.604;7.316;2022-07-12T00:39:04;2.22;;;2.00;;
28495;SDS011;15710;51.604;7.316;2022-07-12T00:41:30;3.22;;;1.98;;
28495;SDS011;15710;51.604;7.316;2022-07-12T00:43:56;2.95;;;2.25;;
28495;SDS011;15710;51.604;7.316;2022-07-12T00:46:22;3.83;;;2.30;;
28495;SDS011;15710;51.604;7.316;2022-07-12T00:48:49;3.30;;;2.20;;
28495;SDS011;15710;51.604;7.316;2022-07-12T00:51:17;4.03;;;2.50;;
28495;SDS011;15710;51.604;7.316;2022-07-12T00:53:44;2.42;;;2.22;;
28495;SDS011;15710;51.604;7.316;2022-07-12T00:56:10;2.45;;;2.10;;
28495;SDS011;15710;51.604;7.316;2022-07-12T00:58:38;2.03;;;1.80;;
28495;SDS011;15710;51.604;7.316;2022-07-12T01:01:05;4.75;;;2.35;;
28495;SDS011;15710;51.604;7.316;2022-07-12T01:03:31;2.80;;;2.30;;
28495;SDS011;15710;51.604;7.316;2022-07-12T01:05:57;2.92;;;2.50;;
28495;SDS011;15710;51.604;7.316;2022-07-12T01:08:24;3.53;;;2.72;;
28495;SDS011;15710;51.604;7.316;2022-07-12T01:10:52;6.00;;;3.22;;
28495;SDS011;15710;51.604;7.316;2022-07-12T01:13:19;8.38;;;4.57;;
28495;SDS011;15710;51.604;7.316;2022-07-12T01:15:47;4.53;;;3.13;;
28495;SDS011;15710;51.604;7.316;2022-07-12T01:18:14;5.10;;;3.58;;
28495;SDS011;15710;51.604;7.316;2022-07-12T01:20:42;6.63;;;3.65;;
28495;SDS011;15710;51.604;7.316;2022-07-12T01:23:09;4.32;;;3.25;;
28495;SDS011;15710;51.604;7.316;2022-07-12T01:25:38;4.07;;;3.22;;
28495;SDS011;15710;51.604;7.316;2022-07-12T01:28:04;5.10;;;3.30;;
28495;SDS011;15710;51.604;7.316;2022-07-12T01:30:30;3.67;;;3.10;;
28495;SDS011;15710;51.604;7.316;2022-07-12T01:32:57;4.55;;;3.63;;
28495;SDS011;15710;51.604;7.316;2022-07-12T01:35:24;4.50;;;3.72;;
28495;SDS011;15710;51.604;7.316;2022-07-12T01:37:51;3.58;;;3.28;;
28495;SDS011;15710;51.604;7.316;2022-07-12T01:40:17;4.15;;;3.47;;
28495;SDS011;15710;51.604;7.316;2022-07-12T01:42:43;3.83;;;3.53;;
28495;SDS011;15710;51.604;7.316;2022-07-12T01:45:10;3.70;;;3.00;;
28495;SDS011;15710;51.604;7.316;2022-07-12T01:47:36;4.82;;;3.13;;
28495;SDS011;15710;51.604;7.316;2022-07-12T01:50:06;3.97;;;2.80;;
28495;SDS011;15710;51.604;7.316;2022-07-12T01:52:33;3.17;;;2.50;;
28495;SDS011;15710;51.604;7.316;2022-07-12T01:55:00;3.30;;;2.85;;
28495;SDS011;15710;51.604;7.316;2022-07-12T01:57:27;5.38;;;3.25;;
28495;SDS011;15710;51.604;7.316;2022-07-12T01:59:53;4.38;;;3.97;;
28495;SDS011;15710;51.604;7.316;2022-07-12T02:02:21;5.47;;;4.25;;
28495;SDS011;15710;51.604;7.316;2022-07-12T02:04:48;4.80;;;4.30;;
28495;SDS011;15710;51.604;7.316;2022-07-12T02:07:14;4.80;;;3.92;;
28495;SDS011;15710;51.604;7.316;2022-07-12T02:09:40;4.85;;;4.45;;
28495;SDS011;15710;51.604;7.316;2022-07-12T02:12:06;5.10;;;4.70;;
28495;SDS011;15710;51.604;7.316;2022-07-12T02:14:32;4.35;;;4.00;;
28495;SDS011;15710;51.604;7.316;2022-07-12T02:16:59;6.45;;;4.40;;
28495;SDS011;15710;51.604;7.316;2022-07-12T02:19:25;7.32;;;4.85;;
28495;SDS011;15710;51.604;7.316;2022-07-12T02:21:51;6.15;;;5.18;;
28495;SDS011;15710;51.604;7.316;2022-07-12T02:24:17;10.27;;;5.65;;
28495;SDS011;15710;51.604;7.316;2022-07-12T02:26:43;8.63;;;5.53;;
28495;SDS011;15710;51.604;7.316;2022-07-12T02:29:09;8.40;;;4.75;;
28495;SDS011;15710;51.604;7.316;2022-07-12T02:31:35;7.63;;;4.95;;
28495;SDS011;15710;51.604;7.316;2022-07-12T02:34:01;6.20;;;4.20;;
28495;SDS011;15710;51.604;7.316;2022-07-12T02:36:27;9.02;;;4.40;;
28495;SDS011;15710;51.604;7.316;2022-07-12T02:38:53;6.93;;;4.47;;
28495;SDS011;15710;51.604;7.316;2022-07-12T02:41:19;10.18;;;5.00;;
28495;SDS011;15710;51.604;7.316;2022-07-12T02:43:45;10.93;;;4.75;;
28495;SDS011;15710;51.604;7.316;2022-07-12T02:46:12;10.63;;;5.22;;
28495;SDS011;15710;51.604;7.316;2022-07-12T02:48:39;9.68;;;5.43;;
28495;SDS011;15710;51.604;7.316;2022-07-12T02:51:06;10.65;;;5.10;;
28495;SDS011;15710;51.604;7.316;2022-07-12T02:53:33;9.23;;;4.63;;
28495;SDS011;15710;51.604;7.316;2022-07-12T02:56:00;6.97;;;5.18;;
28495;SDS011;15710;51.604;7.316;2022-07-12T02:58:27;10.80;;;5.55;;
28495;SDS011;15710;51.604;7.316;2022-07-12T03:00:53;5.93;;;4.80;;
28495;SDS011;15710;51.604;7.316;2022-07-12T03:03:19;7.80;;;5.50;;
28495;SDS011;15710;51.604;7.316;2022-07-12T03:05:46;8.25;;;4.90;;
28495;SDS011;15710;51.604;7.316;2022-07-12T03:08:12;8.95;;;4.97;;
28495;SDS011;15710;51.604;7.316;2022-07-12T03:10:40;8.13;;;5.28;;
28495;SDS011;15710;51.604;7.316;2022-07-12T03:13:06;5.97;;;5.25;;
28495;SDS011;15710;51.604;7.316;2022-07-12T03:15:32;8.40;;;5.60;;
28495;SDS011;15710;51.604;7.316;2022-07-12T03:17:59;8.20;;;5.28;;
28495;SDS011;15710;51.604;7.316;2022-07-12T03:20:27;9.05;;;5.68;;
28495;SDS011;15710;51.604;7.316;2022-07-12T03:22:58;8.50;;;5.93;;
28495;SDS011;15710;51.604;7.316;2022-07-12T03:25:24;7.05;;;5.43;;
28495;SDS011;15710;51.604;7.316;2022-07-12T03:27:50;5.57;;;4.80;;
28495;SDS011;15710;51.604;7.316;2022-07-12T03:30:17;11.32;;;5.00;;
28495;SDS011;15710;51.604;7.316;2022-07-12T03:32:43;7.28;;;5.00;;
28495;SDS011;15710;51.604;7.316;2022-07-12T03:35:09;6.55;;;5.28;;
28495;SDS011;15710;51.604;7.316;2022-07-12T03:40:13;6.80;;;5.57;;
28495;SDS011;15710;51.604;7.316;2022-07-12T03:42:40;7.55;;;5.65;;
28495;SDS011;15710;51.604;7.316;2022-07-12T03:45:08;6.43;;;5.78;;
28495;SDS011;15710;51.604;7.316;2022-07-12T03:47:35;6.65;;;5.88;;
28495;SDS011;15710;51.604;7.316;2022-07-12T03:50:03;6.68;;;5.97;;
28495;SDS011;15710;51.604;7.316;2022-07-12T03:52:33;7.55;;;5.00;;
28495;SDS011;15710;51.604;7.316;2022-07-12T03:54:59;5.88;;;5.15;;
28495;SDS011;15710;51.604;7.316;2022-07-12T03:57:27;4.85;;;4.43;;
28495;SDS011;15710;51.604;7.316;2022-07-12T03:59:54;5.70;;;5.20;;
28495;SDS011;15710;51.604;7.316;2022-07-12T04:02:21;6.03;;;5.20;;
28495;SDS011;15710;51.604;7.316;2022-07-12T04:04:47;5.80;;;4.70;;
28495;SDS011;15710;51.604;7.316;2022-07-12T04:07:13;5.50;;;4.95;;
28495;SDS011;15710;51.604;7.316;2022-07-12T04:09:39;5.85;;;5.07;;
28495;SDS011;15710;51.604;7.316;2022-07-12T04:12:05;5.63;;;4.68;;
28495;SDS011;15710;51.604;7.316;2022-07-12T04:14:31;6.63;;;4.85;;
28495;SDS011;15710;51.604;7.316;2022-07-12T04:16:58;5.15;;;4.25;;
28495;SDS011;15710;51.604;7.316;2022-07-12T04:19:24;5.50;;;4.47;;
28495;SDS011;15710;51.604;7.316;2022-07-12T04:21:53;7.10;;;4.93;;
28495;SDS011;15710;51.604;7.316;2022-07-12T04:24:21;5.43;;;4.45;;
28495;SDS011;15710;51.604;7.316;2022-07-12T04:26:47;5.55;;;5.05;;
28495;SDS011;15710;51.604;7.316;2022-07-12T04:29:15;6.53;;;5.93;;
28495;SDS011;15710;51.604;7.316;2022-07-12T04:31:42;8.10;;;6.60;;
28495;SDS011;15710;51.604;7.316;2022-07-12T04:34:08;9.20;;;6.70;;
28495;SDS011;15710;51.604;7.316;2022-07-12T04:36:34;7.25;;;6.35;;
28495;SDS011;15710;51.604;7.316;2022-07-12T04:39:00;8.50;;;6.80;;
28495;SDS011;15710;51.604;7.316;2022-07-12T04:41:26;7.65;;;6.40;;
28495;SDS011;15710;51.604;7.316;2022-07-12T04:43:52;7.32;;;6.38;;
28495;SDS011;15710;51.604;7.316;2022-07-12T04:46:18;8.20;;;7.40;;
28495;SDS011;15710;51.604;7.316;2022-07-12T04:48:44;9.18;;;8.02;;
28495;SDS011;15710;51.604;7.316;2022-07-12T04:51:10;8.02;;;7.25;;
28495;SDS011;15710;51.604;7.316;2022-07-12T04:53:37;8.40;;;7.13;;
28495;SDS011;15710;51.604;7.316;2022-07-12T04:56:03;7.03;;;6.35;;
28495;SDS011;15710;51.604;7.316;2022-07-12T04:58:29;7.53;;;6.80;;
28495;SDS011;15710;51.604;7.316;2022-07-12T05:00:55;7.30;;;6.60;;
28495;SDS011;15710;51.604;7.316;2022-07-12T05:03:21;7.45;;;6.75;;
28495;SDS011;15710;51.604;7.316;2022-07-12T05:05:52;7.22;;;6.53;;
28495;SDS011;15710;51.604;7.316;2022-07-12T05:08:22;8.07;;;7.32;;
28495;SDS011;15710;51.604;7.316;2022-07-12T05:10:48;8.30;;;7.50;;
28495;SDS011;15710;51.604;7.316;2022-07-12T05:13:14;11.32;;;8.18;;
28495;SDS011;15710;51.604;7.316;2022-07-12T05:15:40;9.30;;;8.40;;
28495;SDS011;15710;51.604;7.316;2022-07-12T05:18:06;9.75;;;7.85;;
28495;SDS011;15710;51.604;7.316;2022-07-12T05:20:32;8.98;;;8.10;;
28495;SDS011;15710;51.604;7.316;2022-07-12T05:22:59;8.75;;;7.93;;
28495;SDS011;15710;51.604;7.316;2022-07-12T05:25:25;9.95;;;8.95;;
28495;SDS011;15710;51.604;7.316;2022-07-12T05:27:51;9.35;;;8.27;;
28495;SDS011;15710;51.604;7.316;2022-07-12T05:30:17;9.57;;;8.68;;
28495;SDS011;15710;51.604;7.316;2022-07-12T05:32:43;9.88;;;8.00;;
28495;SDS011;15710;51.604;7.316;2022-07-12T05:35:09;11.00;;;8.68;;
28495;SDS011;15710;51.604;7.316;2022-07-12T05:37:35;10.70;;;8.52;;
28495;SDS011;15710;51.604;7.316;2022-07-12T05:40:01;11.25;;;10.05;;
28495;SDS011;15710;51.604;7.316;2022-07-12T05:42:27;11.43;;;8.50;;
28495;SDS011;15710;51.604;7.316;2022-07-12T05:44:53;8.20;;;7.40;;
28495;SDS011;15710;51.604;7.316;2022-07-12T05:47:19;9.95;;;8.38;;
28495;SDS011;15710;51.604;7.316;2022-07-12T05:49:45;8.23;;;6.50;;
28495;SDS011;15710;51.604;7.316;2022-07-12T05:52:11;8.27;;;7.45;;
28495;SDS011;15710;51.604;7.316;2022-07-12T05:55:04;7.50;;;6.75;;
28495;SDS011;15710;51.604;7.316;2022-07-12T05:57:30;6.65;;;5.97;;
28495;SDS011;15710;51.604;7.316;2022-07-12T05:59:57;9.60;;;6.53;;
28495;SDS011;15710;51.604;7.316;2022-07-12T06:02:23;8.43;;;7.35;;
28495;SDS011;15710;51.604;7.316;2022-07-12T06:04:49;8.50;;;7.60;;
28495;SDS011;15710;51.604;7.316;2022-07-12T06:07:15;9.43;;;7.30;;
28495;SDS011;15710;51.604;7.316;2022-07-12T06:09:41;8.95;;;8.05;;
28495;SDS011;15710;51.604;7.316;2022-07-12T06:12:08;10.13;;;7.72;;
28495;SDS011;15710;51.604;7.316;2022-07-12T06:14:34;11.95;;;10.65;;
28495;SDS011;15710;51.604;7.316;2022-07-12T06:17:00;9.57;;;8.25;;
28495;SDS011;15710;51.604;7.316;2022-07-12T06:19:26;12.45;;;8.48;;
28495;SDS011;15710;51.604;7.316;2022-07-12T06:21:52;9.52;;;8.57;;
28495;SDS011;15710;51.604;7.316;2022-07-12T06:24:18;15.35;;;9.82;;
28495;SDS011;15710;51.604;7.316;2022-07-12T06:26:44;11.85;;;9.55;;
28495;SDS011;15710;51.604;7.316;2022-07-12T06:29:10;10.20;;;7.60;;
28495;SDS011;15710;51.604;7.316;2022-07-12T06:31:36;7.97;;;6.65;;
28495;SDS011;15710;51.604;7.316;2022-07-12T06:34:02;8.10;;;6.78;;
28495;SDS011;15710;51.604;7.316;2022-07-12T06:36:28;8.15;;;7.03;;
28495;SDS011;15710;51.604;7.316;2022-07-12T06:38:54;8.55;;;7.15;;
28495;SDS011;15710;51.604;7.316;2022-07-12T06:41:20;6.45;;;5.82;;
28495;SDS011;15710;51.604;7.316;2022-07-12T06:43:47;6.90;;;6.25;;
28495;SDS011;15710;51.604;7.316;2022-07-12T06:46:13;7.40;;;5.80;;
28495;SDS011;15710;51.604;7.316;2022-07-12T06:48:39;10.52;;;6.10;;
28495;SDS011;15710;51.604;7.316;2022-07-12T06:51:05;7.10;;;6.07;;
28495;SDS011;15710;51.604;7.316;2022-07-12T06:53:31;8.35;;;5.57;;
28495;SDS011;15710;51.604;7.316;2022-07-12T06:55:58;7.03;;;6.32;;
28495;SDS011;15710;51.604;7.316;2022-07-12T06:58:25;8.98;;;7.60;;
28495;SDS011;15710;51.604;7.316;2022-07-12T07:00:51;6.00;;;5.40;;
28495;SDS011;15710;51.604;7.316;2022-07-12T07:03:18;5.90;;;5.30;;
28495;SDS011;15710;51.604;7.316;2022-07-12T07:05:44;5.28;;;4.32;;
28495;SDS011;15710;51.604;7.316;2022-07-12T07:08:10;7.65;;;5.85;;
28495;SDS011;15710;51.604;7.316;2022-07-12T07:10:36;5.18;;;4.63;;
28495;SDS011;15710;51.604;7.316;2022-07-12T07:13:02;5.60;;;4.80;;
28495;SDS011;15710;51.604;7.316;2022-07-12T07:15:28;5.68;;;4.00;;
28495;SDS011;15710;51.604;7.316;2022-07-12T07:17:54;8.50;;;6.18;;
28495;SDS011;15710;51.604;7.316;2022-07-12T07:20:20;5.43;;;4.43;;
28495;SDS011;15710;51.604;7.316;2022-07-12T07:22:46;4.00;;;3.70;;
28495;SDS011;15710;51.604;7.316;2022-07-12T07:25:13;6.53;;;3.35;;
28495;SDS011;15710;51.604;7.316;2022-07-12T07:27:40;4.25;;;3.88;;
28495;SDS011;15710;51.604;7.316;2022-07-12T07:30:06;4.75;;;3.53;;
28495;SDS011;15710;51.604;7.316;2022-07-12T07:32:51;4.28;;;3.10;;
28495;SDS011;15710;51.604;7.316;2022-07-12T07:35:17;4.35;;;2.78;;
28495;SDS011;15710;51.604;7.316;2022-07-12T07:37:43;3.22;;;2.08;;
28495;SDS011;15710;51.604;7.316;2022-07-12T07:40:09;2.72;;;2.50;;
28495;SDS011;15710;51.604;7.316;2022-07-12T07:42:35;2.75;;;2.17;;
28495;SDS011;15710;51.604;7.316;2022-07-12T07:45:01;2.78;;;1.98;;
28495;SDS011;15710;51.604;7.316;2022-07-12T07:47:31;2.37;;;2.10;;
28495;SDS011;15710;51.604;7.316;2022-07-12T07:50:07;1.95;;;1.85;;
28495;SDS011;15710;51.604;7.316;2022-07-12T07:52:33;2.08;;;1.70;;
28495;SDS011;15710;51.604;7.316;2022-07-12T07:54:59;2.85;;;2.13;;
28495;SDS011;15710;51.604;7.316;2022-07-12T07:57:25;2.75;;;2.47;;
28495;SDS011;15710;51.604;7.316;2022-07-12T07:59:51;1.85;;;1.70;;
28495;SDS011;15710;51.604;7.316;2022-07-12T08:02:17;5.82;;;2.22;;
28495;SDS011;15710;51.604;7.316;2022-07-12T08:04:43;2.13;;;1.90;;
28495;SDS011;15710;51.604;7.316;2022-07-12T08:07:09;1.92;;;1.45;;
28495;SDS011;15710;51.604;7.316;2022-07-12T08:09:35;2.10;;;1.42;;
28495;SDS011;15710;51.604;7.316;2022-07-12T08:12:01;3.33;;;1.50;;
28495;SDS011;15710;51.604;7.316;2022-07-12T08:14:27;2.92;;;1.95;;
28495;SDS011;15710;51.604;7.316;2022-07-12T08:16:53;2.40;;;1.92;;
28495;SDS011;15710;51.604;7.316;2022-07-12T08:19:19;1.70;;;1.45;;
28495;SDS011;15710;51.604;7.316;2022-07-12T08:21:46;2.30;;;1.30;;
28495;SDS011;15710;51.604;7.316;2022-07-12T08:24:12;3.20;;;1.98;;
28495;SDS011;15710;51.604;7.316;2022-07-12T08:26:38;3.40;;;1.98;;
28495;SDS011;15710;51.604;7.316;2022-07-12T08:29:05;2.78;;;1.75;;
28495;SDS011;15710;51.604;7.316;2022-07-12T08:31:31;2.10;;;1.70;;
28495;SDS011;15710;51.604;7.316;2022-07-12T08:33:57;6.10;;;1.65;;
28495;SDS011;15710;51.604;7.316;2022-07-12T08:36:23;7.65;;;1.80;;
28495;SDS011;15710;51.604;7.316;2022-07-12T08:38:49;4.57;;;1.50;;
28495;SDS011;15710;51.604;7.316;2022-07-12T08:41:15;1.50;;;1.33;;
28495;SDS011;15710;51.604;7.316;2022-07-12T08:43:41;2.08;;;1.73;;
28495;SDS011;15710;51.604;7.316;2022-07-12T08:46:08;1.55;;;1.23;;
28495;SDS011;15710;51.604;7.316;2022-07-12T08:48:36;2.95;;;1.60;;
28495;SDS011;15710;51.604;7.316;2022-07-12T08:53:30;2.35;;;1.63;;
28495;SDS011;15710;51.604;7.316;2022-07-12T08:55:57;2.13;;;1.30;;
28495;SDS011;15710;51.604;7.316;2022-07-12T08:58:23;2.17;;;1.10;;
28495;SDS011;15710;51.604;7.316;2022-07-12T09:00:49;2.08;;;1.23;;
28495;SDS011;15710;51.604;7.316;2022-07-12T09:03:15;2.67;;;1.25;;
28495;SDS011;15710;51.604;7.316;2022-07-12T09:08:16;2.42;;;1.50;;
28495;SDS011;15710;51.604;7.316;2022-07-12T09:13:15;1.60;;;1.15;;
28495;SDS011;15710;51.604;7.316;2022-07-12T09:15:42;1.92;;;1.50;;
28495;SDS011;15710;51.604;7.316;2022-07-12T09:18:08;4.20;;;2.05;;
28495;SDS011;15710;51.604;7.316;2022-07-12T09:20:38;3.35;;;1.38;;
28495;SDS011;15710;51.604;7.316;2022-07-12T09:23:07;5.28;;;2.17;;
28495;SDS011;15710;51.604;7.316;2022-07-12T09:25:35;7.15;;;3.20;;
28495;SDS011;15710;51.604;7.316;2022-07-12T09:28:03;1.80;;;0.98;;
28495;SDS011;15710;51.604;7.316;2022-07-12T09:30:33;2.83;;;1.20;;
28495;SDS011;15710;51.604;7.316;2022-07-12T09:33:03;1.63;;;1.38;;
28495;SDS011;15710;51.604;7.316;2022-07-12T09:36:06;3.05;;;1.60;;
28495;SDS011;15710;51.604;7.316;2022-07-12T09:38:32;2.25;;;1.20;;
28495;SDS011;15710;51.604;7.316;2022-07-12T09:41:06;3.22;;;0.90;;
28495;SDS011;15710;51.604;7.316;2022-07-12T09:43:33;1.38;;;1.10;;
28495;SDS011;15710;51.604;7.316;2022-07-12T09:45:59;19.92;;;2.10;;
28495;SDS011;15710;51.604;7.316;2022-07-12T09:48:27;6.47;;;1.77;;
28495;SDS011;15710;51.604;7.316;2022-07-12T09:50:55;3.25;;;1.30;;
28495;SDS011;15710;51.604;7.316;2022-07-12T09:53:26;2.25;;;0.80;;
28495;SDS011;15710;51.604;7.316;2022-07-12T09:56:19;4.20;;;1.30;;
28495;SDS011;15710;51.604;7.316;2022-07-12T09:58:55;1.77;;;0.85;;
28495;SDS011;15710;51.604;7.316;2022-07-12T10:01:23;1.42;;;0.80;;
28495;SDS011;15710;51.604;7.316;2022-07-12T10:03:52;1.67;;;1.17;;
28495;SDS011;15710;51.604;7.316;2022-07-12T10:06:25;1.10;;;0.68;;
28495;SDS011;15710;51.604;7.316;2022-07-12T10:08:54;3.13;;;1.45;;
28495;SDS011;15710;51.604;7.316;2022-07-12T10:11:24;1.83;;;0.70;;
28495;SDS011;15710;51.604;7.316;2022-07-12T10:13:51;1.50;;;0.90;;
28495;SDS011;15710;51.604;7.316;2022-07-12T10:16:24;1.60;;;1.05;;
28495;SDS011;15710;51.604;7.316;2022-07-12T10:22:07;4.30;;;1.00;;
28495;SDS011;15710;51.604;7.316;2022-07-12T10:24:50;1.15;;;0.57;;
28495;SDS011;15710;51.604;7.316;2022-07-12T10:29:47;0.70;;;0.65;;
28495;SDS011;15710;51.604;7.316;2022-07-12T10:32:27;2.08;;;0.90;;
28495;SDS011;15710;51.604;7.316;2022-07-12T10:35:00;3.30;;;0.90;;
28495;SDS011;15710;51.604;7.316;2022-07-12T10:37:28;2.10;;;1.02;;
28495;SDS011;15710;51.604;7.316;2022-07-12T10:48:04;1.38;;;1.02;;
28495;SDS011;15710;51.604;7.316;2022-07-12T10:56:06;1.65;;;0.60;;
28495;SDS011;15710;51.604;7.316;2022-07-12T11:01:22;0.93;;;0.50;;
28495;SDS011;15710;51.604;7.316;2022-07-12T11:03:52;0.93;;;0.60;;
28495;SDS011;15710;51.604;7.316;2022-07-12T11:06:22;2.00;;;0.70;;
28495;SDS011;15710;51.604;7.316;2022-07-12T11:11:28;2.00;;;0.85;;
28495;SDS011;15710;51.604;7.316;2022-07-12T11:13:58;0.68;;;0.68;;
28495;SDS011;15710;51.604;7.316;2022-07-12T11:16:25;1.10;;;1.00;;
28495;SDS011;15710;51.604;7.316;2022-07-12T11:18:52;2.97;;;0.90;;
28495;SDS011;15710;51.604;7.316;2022-07-12T11:21:21;0.85;;;0.70;;
28495;SDS011;15710;51.604;7.316;2022-07-12T11:23:47;5.43;;;0.90;;
28495;SDS011;15710;51.604;7.316;2022-07-12T11:26:14;0.80;;;0.70;;
28495;SDS011;15710;51.604;7.316;2022-07-12T11:28:41;0.70;;;0.70;;
28495;SDS011;15710;51.604;7.316;2022-07-12T11:31:09;1.05;;;0.50;;
28495;SDS011;15710;51.604;7.316;2022-07-12T11:33:37;1.65;;;0.60;;
28495;SDS011;15710;51.604;7.316;2022-07-12T11:36:06;3.47;;;0.70;;
28495;SDS011;15710;51.604;7.316;2022-07-12T11:38:33;1.55;;;0.75;;
28495;SDS011;15710;51.604;7.316;2022-07-12T11:41:01;2.28;;;0.50;;
28495;SDS011;15710;51.604;7.316;2022-07-12T11:43:29;0.90;;;0.68;;
28495;SDS011;15710;51.604;7.316;2022-07-12T11:45:56;1.17;;;0.80;;
28495;SDS011;15710;51.604;7.316;2022-07-12T11:48:23;0.57;;;0.50;;
28495;SDS011;15710;51.604;7.316;2022-07-12T11:50:52;0.75;;;0.47;;
28495;SDS011;15710;51.604;7.316;2022-07-12T11:53:20;1.13;;;0.73;;
28495;SDS011;15710;51.604;7.316;2022-07-12T11:55:49;0.47;;;0.47;;
28495;SDS011;15710;51.604;7.316;2022-07-12T11:58:17;3.93;;;0.87;;
28495;SDS011;15710;51.604;7.316;2022-07-12T12:00:44;1.30;;;0.68;;
28495;SDS011;15710;51.604;7.316;2022-07-12T12:03:12;1.75;;;0.80;;
28495;SDS011;15710;51.604;7.316;2022-07-12T12:05:39;0.60;;;0.60;;
28495;SDS011;15710;51.604;7.316;2022-07-12T12:08:06;9.75;;;1.73;;
28495;SDS011;15710;51.604;7.316;2022-07-12T12:10:33;1.13;;;0.77;;
28495;SDS011;15710;51.604;7.316;2022-07-12T12:13:00;2.15;;;0.70;;
28495;SDS011;15710;51.604;7.316;2022-07-12T12:15:30;3.33;;;0.50;;
28495;SDS011;15710;51.604;7.316;2022-07-12T12:17:58;1.27;;;0.63;;
28495;SDS011;15710;51.604;7.316;2022-07-12T12:20:30;1.38;;;0.63;;
28495;SDS011;15710;51.604;7.316;2022-07-12T12:22:57;2.50;;;0.70;;
28495;SDS011;15710;51.604;7.316;2022-07-12T12:25:25;1.52;;;0.45;;
28495;SDS011;15710;51.604;7.316;2022-07-12T12:27:56;0.57;;;0.50;;
28495;SDS011;15710;51.604;7.316;2022-07-12T12:30:31;3.03;;;0.80;;
28495;SDS011;15710;51.604;7.316;2022-07-12T12:33:13;1.35;;;0.70;;
28495;SDS011;15710;51.604;7.316;2022-07-12T12:36:10;1.75;;;0.57;;
28495;SDS011;15710;51.604;7.316;2022-07-12T12:38:39;2.30;;;0.70;;
28495;SDS011;15710;51.604;7.316;2022-07-12T12:41:05;1.45;;;0.60;;
28495;SDS011;15710;51.604;7.316;2022-07-12T12:43:31;3.13;;;0.70;;
28495;SDS011;15710;51.604;7.316;2022-07-12T12:45:58;0.68;;;0.68;;
28495;SDS011;15710;51.604;7.316;2022-07-12T12:48:24;5.28;;;0.73;;
28495;SDS011;15710;51.604;7.316;2022-07-12T12:50:52;0.82;;;0.63;;
28495;SDS011;15710;51.604;7.316;2022-07-12T12:55:47;5.00;;;1.30;;
28495;SDS011;15710;51.604;7.316;2022-07-12T12:58:15;2.35;;;0.90;;
28495;SDS011;15710;51.604;7.316;2022-07-12T13:00:43;2.03;;;0.90;;
28495;SDS011;15710;51.604;7.316;2022-07-12T13:03:11;3.65;;;0.70;;
28495;SDS011;15710;51.604;7.316;2022-07-12T13:05:38;1.63;;;0.65;;
28495;SDS011;15710;51.604;7.316;2022-07-12T13:08:05;2.08;;;0.80;;
28495;SDS011;15710;51.604;7.316;2022-07-12T13:10:33;0.98;;;0.88;;
28495;SDS011;15710;51.604;7.316;2022-07-12T13:13:00;3.70;;;0.90;;
28495;SDS011;15710;51.604;7.316;2022-07-12T13:15:28;3.25;;;1.00;;
28495;SDS011;15710;51.604;7.316;2022-07-12T13:17:54;2.85;;;0.98;;
28495;SDS011;15710;51.604;7.316;2022-07-12T13:20:21;4.03;;;1.58;;
28495;SDS011;15710;51.604;7.316;2022-07-12T13:22:47;3.22;;;1.13;;
28495;SDS011;15710;51.604;7.316;2022-07-12T13:25:14;1.85;;;1.08;;
28495;SDS011;15710;51.604;7.316;2022-07-12T13:27:41;3.25;;;1.20;;
28495;SDS011;15710;51.604;7.316;2022-07-12T13:30:08;1.98;;;0.93;;
28495;SDS011;15710;51.604;7.316;2022-07-12T13:32:36;5.30;;;1.40;;
28495;SDS011;15710;51.604;7.316;2022-07-12T13:35:03;1.73;;;1.20;;
28495;SDS011;15710;51.604;7.316;2022-07-12T13:37:30;1.83;;;1.00;;
28495;SDS011;15710;51.604;7.316;2022-07-12T13:39:57;2.70;;;0.98;;
28495;SDS011;15710;51.604;7.316;2022-07-12T13:42:43;1.25;;;0.82;;
28495;SDS011;15710;51.604;7.316;2022-07-12T13:45:11;2.25;;;0.98;;
28495;SDS011;15710;51.604;7.316;2022-07-12T13:47:40;1.95;;;1.13;;
28495;SDS011;15710;51.604;7.316;2022-07-12T13:50:06;2.13;;;1.30;;
28495;SDS011;15710;51.604;7.316;2022-07-12T13:52:34;1.67;;;1.00;;
28495;SDS011;15710;51.604;7.316;2022-07-12T13:55:00;7.45;;;1.30;;
28495;SDS011;15710;51.604;7.316;2022-07-12T13:57:26;9.98;;;1.55;;
28495;SDS011;15710;51.604;7.316;2022-07-12T13:59:53;1.95;;;1.20;;
28495;SDS011;15710;51.604;7.316;2022-07-12T14:02:19;2.22;;;0.90;;
28495;SDS011;15710;51.604;7.316;2022-07-12T14:04:45;2.40;;;1.10;;
28495;SDS011;15710;51.604;7.316;2022-07-12T14:07:11;2.13;;;0.98;;
28495;SDS011;15710;51.604;7.316;2022-07-12T14:09:38;3.88;;;1.27;;
28495;SDS011;15710;51.604;7.316;2022-07-12T14:12:04;1.75;;;1.30;;
28495;SDS011;15710;51.604;7.316;2022-07-12T14:14:33;2.42;;;1.15;;
28495;SDS011;15710;51.604;7.316;2022-07-12T14:17:18;2.63;;;1.40;;
28495;SDS011;15710;51.604;7.316;2022-07-12T14:19:45;1.85;;;1.10;;
28495;SDS011;15710;51.604;7.316;2022-07-12T14:22:12;3.20;;;1.20;;
28495;SDS011;15710;51.604;7.316;2022-07-12T14:24:38;2.65;;;1.20;;
28495;SDS011;15710;51.604;7.316;2022-07-12T14:27:04;4.85;;;1.17;;
28495;SDS011;15710;51.604;7.316;2022-07-12T14:29:31;6.15;;;1.73;;
28495;SDS011;15710;51.604;7.316;2022-07-12T14:31:57;4.60;;;1.88;;
28495;SDS011;15710;51.604;7.316;2022-07-12T14:34:24;5.70;;;1.70;;
28495;SDS011;15710;51.604;7.316;2022-07-12T14:36:50;3.42;;;1.80;;
28495;SDS011;15710;51.604;7.316;2022-07-12T14:39:16;2.78;;;1.60;;
28495;SDS011;15710;51.604;7.316;2022-07-12T14:41:42;3.50;;;1.80;;
28495;SDS011;15710;51.604;7.316;2022-07-12T14:44:08;6.25;;;1.80;;
28495;SDS011;15710;51.604;7.316;2022-07-12T14:46:34;6.53;;;1.92;;
28495;SDS011;15710;51.604;7.316;2022-07-12T14:49:00;7.00;;;2.40;;
28495;SDS011;15710;51.604;7.316;2022-07-12T14:51:26;3.88;;;1.80;;
28495;SDS011;15710;51.604;7.316;2022-07-12T14:53:52;4.97;;;1.98;;
28495;SDS011;15710;51.604;7.316;2022-07-12T14:56:19;4.57;;;1.75;;
28495;SDS011;15710;51.604;7.316;2022-07-12T14:58:45;3.65;;;1.98;;
28495;SDS011;15710;51.604;7.316;2022-07-12T15:01:11;3.92;;;2.03;;
28495;SDS011;15710;51.604;7.316;2022-07-12T15:03:37;4.38;;;2.05;;
28495;SDS011;15710;51.604;7.316;2022-07-12T15:06:03;2.45;;;1.50;;
28495;SDS011;15710;51.604;7.316;2022-07-12T15:08:30;5.65;;;1.77;;
28495;SDS011;15710;51.604;7.316;2022-07-12T15:10:56;2.85;;;1.73;;
28495;SDS011;15710;51.604;7.316;2022-07-12T15:13:23;6.15;;;2.08;;
28495;SDS011;15710;51.604;7.316;2022-07-12T15:15:49;6.05;;;2.65;;
28495;SDS011;15710;51.604;7.316;2022-07-12T15:18:15;3.97;;;1.80;;
28495;SDS011;15710;51.604;7.316;2022-07-12T15:20:42;5.15;;;2.40;;
28495;SDS011;15710;51.604;7.316;2022-07-12T15:23:08;4.47;;;1.70;;
28495;SDS011;15710;51.604;7.316;2022-07-12T15:25:34;3.72;;;2.42;;